Time;durP1;ratioP1;P1;durP2;ratioP2;P2;SDS_P1;SDS_P2;PMS_P1;PMS_P2;Temp;Humidity;BMP_temperature;BMP_pressure;BME280_temperature;BME280_humidity;BME280_pressure;Samples;Min_cycle;Max_cycle;Signal;HPM_P1;HPM_P2
2023/08/16 00:01:03;;;;;;;1.50;0.90;;;20.70;98.20;;;;;;5020148;28;20683;-83
2023/08/16 00:03:30;;;;;;;1.50;0.90;;;20.70;98.20;;;;;;5040088;28;20461;-82
2023/08/16 00:05:57;;;;;;;1.50;0.90;;;20.70;98.20;;;;;;5018976;28;20464;-82
2023/08/16 00:08:25;;;;;;;1.50;0.90;;;20.70;98.20;;;;;;5038740;28;20532;-83
2023/08/16 00:10:52;;;;;;;1.50;0.90;;;20.60;98.20;;;;;;5017948;28;20462;-83
2023/08/16 00:13:19;;;;;;;1.50;0.93;;;20.60;98.20;;;;;;5041927;28;20588;-83
2023/08/16 00:15:46;;;;;;;1.50;0.90;;;20.60;98.20;;;;;;5025116;28;21020;-83
2023/08/16 00:18:13;;;;;;;1.50;0.90;;;20.60;98.20;;;;;;5017008;28;20530;-82
2023/08/16 00:20:39;;;;;;;1.50;0.90;;;20.50;98.20;;;;;;5030726;28;21104;-82
2023/08/16 00:23:06;;;;;;;1.50;0.90;;;20.50;98.20;;;;;;5036654;28;20466;-82
2023/08/16 00:25:34;;;;;;;1.50;0.90;;;20.50;98.20;;;;;;5032343;28;20464;-83
2023/08/16 00:28:01;;;;;;;1.50;0.90;;;20.50;98.20;;;;;;5041119;28;20489;-83
2023/08/16 00:30:28;;;;;;;1.50;0.90;;;20.50;98.20;;;;;;5029782;28;20506;-83
2023/08/16 00:32:55;;;;;;;1.50;0.90;;;20.50;98.20;;;;;;5060328;22;21030;-83
2023/08/16 00:35:22;;;;;;;1.53;1.00;;;20.50;98.20;;;;;;5048560;28;20541;-85
2023/08/16 00:37:48;;;;;;;1.50;0.90;;;20.50;98.20;;;;;;5054513;28;20485;-82
2023/08/16 00:40:16;;;;;;;1.50;0.90;;;20.50;98.20;;;;;;5048587;28;20466;-84
2023/08/16 00:42:44;;;;;;;1.50;0.90;;;20.50;98.20;;;;;;5049165;28;20486;-84
2023/08/16 00:45:11;;;;;;;1.50;0.90;;;20.40;98.20;;;;;;5027193;28;20634;-84
2023/08/16 00:47:42;;;;;;;1.60;1.27;;;20.40;98.20;;;;;;5016232;28;20483;-82
2023/08/16 00:50:11;;;;;;;1.50;1.00;;;20.40;98.20;;;;;;5027098;28;20473;-83
2023/08/16 00:52:39;;;;;;;1.50;0.90;;;20.40;98.20;;;;;;5021666;28;20538;-84
2023/08/16 00:55:06;;;;;;;1.50;0.90;;;20.40;98.20;;;;;;5024479;28;20491;-83
2023/08/16 00:57:33;;;;;;;1.50;0.90;;;20.30;98.20;;;;;;5021694;28;20489;-83
2023/08/16 01:00:01;;;;;;;1.50;0.90;;;20.30;98.20;;;;;;5027506;28;20459;-84
2023/08/16 01:02:28;;;;;;;1.50;0.90;;;20.30;98.20;;;;;;5029152;28;20555;-84
2023/08/16 01:04:57;;;;;;;1.50;0.90;;;20.20;98.20;;;;;;5022087;28;20499;-83
2023/08/16 01:07:23;;;;;;;1.50;0.90;;;20.20;98.20;;;;;;5017486;28;21011;-84
2023/08/16 01:09:50;;;;;;;1.50;0.90;;;20.20;98.20;;;;;;5034049;28;20469;-83
2023/08/16 01:12:24;;;;;;;1.50;0.90;;;20.20;98.20;;;;;;5025154;28;20551;-83
2023/08/16 01:14:56;;;;;;;1.50;0.90;;;20.20;98.20;;;;;;5024577;28;20487;-83
2023/08/16 01:17:25;;;;;;;1.50;1.00;;;20.10;98.20;;;;;;5020039;28;20763;-83
2023/08/16 01:19:54;;;;;;;1.50;0.90;;;20.10;98.20;;;;;;5028624;28;20969;-84
2023/08/16 01:22:32;;;;;;;1.50;1.00;;;20.10;98.20;;;;;;5024970;28;20559;-84
2023/08/16 01:25:11;;;;;;;1.50;0.90;;;20.10;98.20;;;;;;5033923;28;20513;-84
2023/08/16 01:27:39;;;;;;;1.60;1.10;;;20.00;98.20;;;;;;5025195;28;20481;-84
2023/08/16 01:30:07;;;;;;;1.50;0.90;;;20.00;98.20;;;;;;5023977;28;22481;-84
2023/08/16 01:32:34;;;;;;;1.50;0.90;;;20.00;98.20;;;;;;5037506;28;21059;-83
2023/08/16 01:35:01;;;;;;;1.50;0.90;;;20.00;98.20;;;;;;5028518;28;20494;-84
2023/08/16 01:37:32;;;;;;;1.50;0.90;;;20.00;98.20;;;;;;5035438;28;20473;-83
2023/08/16 01:40:02;;;;;;;1.50;0.90;;;19.90;98.20;;;;;;5029921;28;20981;-83
2023/08/16 01:42:30;;;;;;;1.50;1.00;;;19.90;98.20;;;;;;5032343;28;20535;-84
2023/08/16 01:45:01;;;;;;;1.50;0.90;;;19.90;98.20;;;;;;5035284;28;20474;-84
2023/08/16 01:47:29;;;;;;;1.50;0.90;;;19.80;98.20;;;;;;5035782;28;20513;-83
2023/08/16 01:49:57;;;;;;;1.50;0.90;;;19.80;98.20;;;;;;5030389;28;20460;-84
2023/08/16 01:52:26;;;;;;;1.50;1.00;;;19.80;98.20;;;;;;5030919;28;20490;-84
2023/08/16 01:54:53;;;;;;;1.50;0.90;;;19.80;98.20;;;;;;5030259;28;20488;-83
2023/08/16 01:57:19;;;;;;;1.50;0.90;;;19.80;98.20;;;;;;5032563;28;20482;-83
2023/08/16 01:59:46;;;;;;;1.50;0.90;;;19.70;98.20;;;;;;5026522;28;20464;-83
2023/08/16 02:02:14;;;;;;;1.50;1.00;;;19.70;98.20;;;;;;5023619;28;20867;-83
2023/08/16 02:04:41;;;;;;;1.50;0.90;;;19.70;98.20;;;;;;5026731;28;20475;-84
2023/08/16 02:07:08;;;;;;;1.50;0.90;;;19.70;98.20;;;;;;5027638;28;20491;-83
2023/08/16 02:09:35;;;;;;;1.50;0.90;;;19.60;98.20;;;;;;5037269;28;20960;-83
2023/08/16 02:12:01;;;;;;;1.50;0.90;;;19.60;98.20;;;;;;5027795;28;20488;-83
2023/08/16 02:14:28;;;;;;;1.50;0.90;;;19.60;98.20;;;;;;5028437;28;20483;-84
2023/08/16 02:16:55;;;;;;;1.50;0.90;;;19.60;98.20;;;;;;5027924;28;20492;-84
2023/08/16 02:19:23;;;;;;;1.50;1.00;;;19.60;98.20;;;;;;5033187;28;20466;-84
2023/08/16 02:21:50;;;;;;;1.50;0.90;;;19.60;98.20;;;;;;5027679;28;20517;-84
2023/08/16 02:24:16;;;;;;;1.50;0.90;;;19.50;98.20;;;;;;5032383;28;20474;-85
2023/08/16 02:26:43;;;;;;;1.50;0.90;;;19.50;98.20;;;;;;5026859;28;20589;-84
2023/08/16 02:29:10;;;;;;;1.50;1.00;;;19.50;98.20;;;;;;5031762;28;20469;-84
2023/08/16 02:31:37;;;;;;;1.50;0.90;;;19.50;98.20;;;;;;5027585;28;20528;-84
2023/08/16 02:34:04;;;;;;;1.50;0.90;;;19.50;98.20;;;;;;5034100;28;20610;-85
2023/08/16 02:36:32;;;;;;;1.50;0.90;;;19.50;98.20;;;;;;5018049;28;20486;-82
2023/08/16 02:38:59;;;;;;;1.50;0.90;;;19.50;98.20;;;;;;5035222;28;20471;-84
2023/08/16 02:41:26;;;;;;;1.50;0.90;;;19.50;98.20;;;;;;5024886;28;20480;-85
2023/08/16 02:43:53;;;;;;;1.50;0.90;;;19.50;98.20;;;;;;5034475;28;20476;-83
2023/08/16 02:46:19;;;;;;;1.50;0.90;;;19.40;98.20;;;;;;5014175;28;20471;-83
2023/08/16 02:48:46;;;;;;;1.50;0.90;;;19.50;98.20;;;;;;5039467;28;20479;-84
2023/08/16 02:51:13;;;;;;;1.50;0.90;;;19.50;98.20;;;;;;5017639;28;20560;-84
2023/08/16 02:53:41;;;;;;;1.50;0.90;;;19.50;98.20;;;;;;5039174;28;20500;-82
2023/08/16 02:56:08;;;;;;;1.50;0.90;;;19.50;98.20;;;;;;5016954;28;20474;-84
2023/08/16 02:58:34;;;;;;;1.50;0.90;;;19.50;98.20;;;;;;5030916;28;20990;-83
2023/08/16 03:01:01;;;;;;;1.50;0.90;;;19.50;98.20;;;;;;5011393;28;20494;-83
2023/08/16 03:03:28;;;;;;;1.50;0.90;;;19.50;98.20;;;;;;5040814;28;20509;-81
2023/08/16 03:05:55;;;;;;;1.50;0.90;;;19.50;98.20;;;;;;5014268;28;20471;-81
2023/08/16 03:08:21;;;;;;;1.50;0.93;;;19.50;98.20;;;;;;5037404;28;20465;-83
2023/08/16 03:10:50;;;;;;;1.50;0.90;;;19.50;98.20;;;;;;5014057;28;20463;-84
2023/08/16 03:13:17;;;;;;;1.50;0.90;;;19.60;98.20;;;;;;5044066;28;20483;-84
2023/08/16 03:15:44;;;;;;;1.50;0.90;;;19.60;98.20;;;;;;5028743;28;20486;-83
2023/08/16 03:18:11;;;;;;;1.50;0.90;;;19.60;98.20;;;;;;5033290;28;20482;-83
2023/08/16 03:20:38;;;;;;;1.50;0.90;;;19.60;98.20;;;;;;5027670;28;20460;-81
2023/08/16 03:23:04;;;;;;;1.50;1.10;;;19.60;98.20;;;;;;5031815;28;20486;-82
2023/08/16 03:25:31;;;;;;;1.53;1.00;;;19.60;98.20;;;;;;5022877;28;20942;-81
2023/08/16 03:27:59;;;;;;;1.50;1.00;;;19.60;98.20;;;;;;5030859;28;20482;-81
2023/08/16 03:30:26;;;;;;;1.50;0.90;;;19.60;98.20;;;;;;5026015;28;20490;-81
2023/08/16 03:32:53;;;;;;;1.50;0.90;;;19.60;98.20;;;;;;5028041;28;20488;-82
2023/08/16 03:35:20;;;;;;;1.50;0.90;;;19.60;98.20;;;;;;5021934;28;20529;-81
2023/08/16 03:37:47;;;;;;;1.50;0.90;;;19.60;98.20;;;;;;5027903;28;20517;-82
2023/08/16 03:40:14;;;;;;;1.50;0.90;;;19.60;98.20;;;;;;5023247;28;20846;-83
2023/08/16 03:42:41;;;;;;;1.50;0.90;;;19.60;98.20;;;;;;5033700;28;20489;-82
2023/08/16 03:45:10;;;;;;;1.50;0.90;;;19.60;98.20;;;;;;5020113;28;20495;-81
2023/08/16 03:47:37;;;;;;;1.50;0.90;;;19.60;98.20;;;;;;5029952;28;20474;-81
2023/08/16 03:50:05;;;;;;;1.50;0.90;;;19.60;98.20;;;;;;5024197;28;20491;-82
2023/08/16 03:52:31;;;;;;;1.50;0.97;;;19.60;98.20;;;;;;5024161;28;20554;-82
2023/08/16 03:54:58;;;;;;;1.50;1.00;;;19.60;98.20;;;;;;5028281;28;20487;-82
2023/08/16 03:57:25;;;;;;;1.50;0.90;;;19.60;98.20;;;;;;5024995;28;20475;-84
2023/08/16 03:59:52;;;;;;;1.50;0.90;;;19.70;98.20;;;;;;5031786;28;20463;-82
2023/08/16 04:02:21;;;;;;;1.50;0.90;;;19.60;98.20;;;;;;5029227;28;20486;-82
2023/08/16 04:04:53;;;;;;;1.50;0.90;;;19.60;98.20;;;;;;5029398;28;20464;-82
2023/08/16 04:07:20;;;;;;;1.50;0.90;;;19.70;98.20;;;;;;5031176;28;20482;-84
2023/08/16 04:09:47;;;;;;;1.50;0.90;;;19.70;98.20;;;;;;5028587;28;20462;-81
2023/08/16 04:12:14;;;;;;;1.50;0.90;;;19.70;98.20;;;;;;5020649;28;20568;-84
2023/08/16 04:14:41;;;;;;;1.50;0.90;;;19.70;98.20;;;;;;5029283;28;20490;-82
2023/08/16 04:17:09;;;;;;;1.50;1.00;;;19.70;98.20;;;;;;5025109;28;20478;-85
2023/08/16 04:19:37;;;;;;;1.50;0.90;;;19.70;98.20;;;;;;5029174;28;20464;-84
2023/08/16 04:22:04;;;;;;;1.50;0.90;;;19.80;98.20;;;;;;5026604;28;20869;-82
2023/08/16 04:24:30;;;;;;;1.50;0.90;;;19.80;98.20;;;;;;5039107;28;20470;-82
2023/08/16 04:26:57;;;;;;;1.50;0.90;;;19.80;98.20;;;;;;5028506;28;20540;-82
2023/08/16 04:29:24;;;;;;;1.50;0.90;;;19.80;98.20;;;;;;5031670;28;20465;-82
2023/08/16 04:31:51;;;;;;;1.50;0.90;;;19.80;98.20;;;;;;5026677;28;20486;-85
2023/08/16 04:34:18;;;;;;;1.50;0.90;;;19.80;98.20;;;;;;5030818;28;20487;-82
2023/08/16 04:36:46;;;;;;;1.70;1.20;;;19.90;98.20;;;;;;5023678;28;20478;-83
2023/08/16 04:39:13;;;;;;;1.50;0.90;;;19.90;98.20;;;;;;5031961;28;20459;-83
2023/08/16 04:41:40;;;;;;;1.50;0.90;;;19.90;98.20;;;;;;5025816;28;20482;-82
2023/08/16 04:44:06;;;;;;;1.50;0.90;;;19.90;98.20;;;;;;5040219;28;20486;-82
2023/08/16 04:46:33;;;;;;;1.50;0.90;;;19.90;98.20;;;;;;5024521;28;20478;-83
2023/08/16 04:49:00;;;;;;;1.50;0.90;;;19.90;98.20;;;;;;5042329;28;20486;-82
2023/08/16 04:51:27;;;;;;;1.50;0.90;;;20.00;98.20;;;;;;5024279;28;20610;-82
2023/08/16 04:53:55;;;;;;;1.50;0.90;;;20.00;98.20;;;;;;5043503;28;20556;-85
2023/08/16 04:56:22;;;;;;;1.50;0.90;;;20.00;98.20;;;;;;5022337;28;20507;-83
2023/08/16 04:58:49;;;;;;;1.50;0.90;;;20.00;98.20;;;;;;5045177;28;20473;-82
2023/08/16 05:01:18;;;;;;;1.50;0.90;;;20.00;98.20;;;;;;5023420;28;20471;-84
2023/08/16 05:03:50;;;;;;;1.50;0.90;;;20.00;98.20;;;;;;5045763;28;20479;-83
2023/08/16 05:06:17;;;;;;;1.50;0.93;;;20.00;98.20;;;;;;5023722;28;20649;-83
2023/08/16 05:08:44;;;;;;;1.50;1.00;;;19.90;98.20;;;;;;5036455;28;20460;-83
2023/08/16 05:11:12;;;;;;;1.60;1.23;;;19.90;98.20;;;;;;5024669;28;20975;-83
2023/08/16 05:13:39;;;;;;;1.50;0.90;;;19.80;98.20;;;;;;5039727;28;20568;-84
2023/08/16 05:16:05;;;;;;;1.50;0.90;;;19.80;98.20;;;;;;5024844;28;20491;-84
2023/08/16 05:18:32;;;;;;;1.50;1.00;;;19.80;98.20;;;;;;5046151;28;20477;-84
2023/08/16 05:21:00;;;;;;;1.50;0.90;;;19.80;98.20;;;;;;5026774;28;20473;-86
2023/08/16 05:23:27;;;;;;;1.50;0.90;;;19.80;98.20;;;;;;5042702;28;20513;-84
2023/08/16 05:25:54;;;;;;;1.50;0.90;;;19.80;98.20;;;;;;5024696;28;20574;-83
2023/08/16 05:28:23;;;;;;;1.50;0.90;;;19.80;98.20;;;;;;5042166;28;20498;-84
2023/08/16 05:30:50;;;;;;;1.50;0.90;;;19.80;98.20;;;;;;5024067;28;20605;-84
2023/08/16 05:33:16;;;;;;;1.50;1.00;;;19.80;98.20;;;;;;5043261;28;20523;-85
2023/08/16 05:35:44;;;;;;;1.50;0.90;;;19.80;98.20;;;;;;5031277;28;20577;-83
2023/08/16 05:38:10;;;;;;;1.50;0.97;;;19.80;98.20;;;;;;5035369;28;20491;-84
2023/08/16 05:40:37;;;;;;;1.50;0.90;;;19.80;98.20;;;;;;5030116;28;20789;-84
2023/08/16 05:43:04;;;;;;;1.50;0.90;;;19.80;98.20;;;;;;5041309;28;20806;-84
2023/08/16 05:45:32;;;;;;;1.50;0.90;;;19.80;98.20;;;;;;5026543;28;20447;-85
2023/08/16 05:47:59;;;;;;;1.50;0.97;;;19.90;98.20;;;;;;5032317;28;20546;-86
2023/08/16 05:50:26;;;;;;;1.50;0.90;;;19.90;98.20;;;;;;5034099;28;20459;-83
2023/08/16 05:52:52;;;;;;;1.50;0.90;;;19.90;98.20;;;;;;5029051;28;20485;-82
2023/08/16 05:55:19;;;;;;;1.50;0.90;;;20.00;98.20;;;;;;5024651;28;20582;-84
2023/08/16 05:57:46;;;;;;;1.50;0.90;;;20.00;98.20;;;;;;5029242;28;20478;-84
2023/08/16 06:00:13;;;;;;;1.50;0.90;;;20.00;98.20;;;;;;5029651;28;20459;-87
2023/08/16 06:02:42;;;;;;;1.50;0.90;;;20.10;98.20;;;;;;5030081;28;20497;-84
2023/08/16 06:05:12;;;;;;;1.50;0.90;;;20.10;98.20;;;;;;5031319;28;20546;-85
2023/08/16 06:07:39;;;;;;;1.50;0.90;;;20.20;98.20;;;;;;5033878;28;20481;-82
2023/08/16 06:10:07;;;;;;;1.50;0.90;;;20.30;98.20;;;;;;5029001;28;21008;-84
2023/08/16 06:12:34;;;;;;;1.53;0.90;;;20.30;98.20;;;;;;5031992;28;20558;-84
2023/08/16 06:15:01;;;;;;;1.50;0.90;;;20.30;98.20;;;;;;5027374;28;20483;-84
2023/08/16 06:17:27;;;;;;;1.50;0.90;;;20.40;98.20;;;;;;5022301;28;20558;-84
2023/08/16 06:19:56;;;;;;;1.50;0.90;;;20.40;98.20;;;;;;5032756;28;20550;-84
2023/08/16 06:22:29;;;;;;;1.50;0.90;;;20.40;98.20;;;;;;5027092;28;20483;-87
2023/08/16 06:24:55;;;;;;;1.50;0.93;;;20.40;98.20;;;;;;5027154;28;20472;-84
2023/08/16 06:27:28;;;;;;;1.50;1.00;;;20.40;98.20;;;;;;5031166;28;20481;-84
2023/08/16 06:29:59;;;;;;;1.50;0.90;;;20.40;98.20;;;;;;5028305;28;20481;-86
2023/08/16 06:35:05;;;;;;;1.50;0.90;;;20.50;98.20;;;;;;5036945;28;20498;-84
2023/08/16 06:37:32;;;;;;;1.50;0.90;;;20.50;98.20;;;;;;5041940;28;20528;-83
2023/08/16 06:39:58;;;;;;;1.50;0.90;;;20.50;98.20;;;;;;5040275;28;20455;-83
2023/08/16 06:42:32;;;;;;;1.53;0.90;;;20.50;98.20;;;;;;5042157;28;20498;-84
2023/08/16 06:44:59;;;;;;;1.50;0.90;;;20.60;98.20;;;;;;5019639;28;20464;-84
2023/08/16 06:47:26;;;;;;;1.50;0.90;;;20.80;98.20;;;;;;5011308;28;20824;-83
2023/08/16 06:49:53;;;;;;;1.50;0.90;;;20.80;98.20;;;;;;5022903;28;20456;-84
2023/08/16 06:52:22;;;;;;;1.50;0.90;;;21.00;98.20;;;;;;5018206;28;20941;-84
2023/08/16 06:54:51;;;;;;;1.50;1.00;;;21.10;98.20;;;;;;5024742;28;20522;-84
2023/08/16 06:57:18;;;;;;;1.50;0.90;;;21.10;98.20;;;;;;5024201;28;20550;-84
2023/08/16 06:59:45;;;;;;;1.50;0.90;;;21.10;98.20;;;;;;5023362;28;20468;-83
2023/08/16 07:02:24;;;;;;;1.53;0.90;;;21.10;98.20;;;;;;5005579;28;20511;-83
2023/08/16 07:05:01;;;;;;;1.50;0.90;;;21.20;98.20;;;;;;5012093;28;20484;-84
2023/08/16 07:07:32;;;;;;;1.50;0.90;;;21.20;98.20;;;;;;5010704;28;20467;-84
2023/08/16 07:09:59;;;;;;;1.50;0.90;;;21.20;98.20;;;;;;5023360;28;20475;-85
2023/08/16 07:12:25;;;;;;;1.50;0.90;;;21.30;98.20;;;;;;5013128;28;20725;-85
2023/08/16 07:14:53;;;;;;;1.50;0.90;;;21.30;98.20;;;;;;5016384;28;20527;-85
2023/08/16 07:17:20;;;;;;;1.80;1.40;;;21.40;98.20;;;;;;5012683;28;20485;-84
2023/08/16 07:19:48;;;;;;;1.50;0.90;;;21.50;98.20;;;;;;5016180;28;20575;-85
2023/08/16 07:22:17;;;;;;;1.50;0.90;;;21.50;98.20;;;;;;5009184;28;20488;-85
2023/08/16 07:25:12;;;;;;;1.50;0.90;;;21.60;98.20;;;;;;5020240;28;20542;-86
2023/08/16 07:27:39;;;;;;;1.50;0.90;;;21.70;98.20;;;;;;5016541;28;20495;-86
2023/08/16 07:30:07;;;;;;;1.50;0.93;;;21.80;98.20;;;;;;5015576;28;20612;-86
2023/08/16 07:32:34;;;;;;;1.50;0.90;;;21.80;98.20;;;;;;5015997;28;20904;-83
2023/08/16 07:35:01;;;;;;;1.50;0.90;;;21.80;98.20;;;;;;5012082;28;20578;-83
2023/08/16 07:38:16;;;;;;;1.50;0.90;;;21.80;98.20;;;;;;5002423;28;20566;-84
2023/08/16 07:40:48;;;;;;;1.50;0.90;;;21.80;98.20;;;;;;5010993;28;20464;-84
2023/08/16 07:43:15;;;;;;;1.50;0.90;;;21.80;98.20;;;;;;5009263;28;20559;-85
2023/08/16 07:45:54;;;;;;;1.50;0.90;;;21.80;98.20;;;;;;5016952;28;20548;-84
2023/08/16 07:48:21;;;;;;;1.50;0.90;;;21.80;98.20;;;;;;5007367;28;20486;-84
2023/08/16 07:50:50;;;;;;;1.50;0.90;;;21.80;98.20;;;;;;5014742;28;20977;-85
2023/08/16 07:53:17;;;;;;;1.50;0.80;;;21.80;98.20;;;;;;5021429;28;20550;-85
2023/08/16 07:55:44;;;;;;;1.50;0.90;;;21.80;98.20;;;;;;5014330;28;20492;-84
2023/08/16 07:58:13;;;;;;;1.50;0.90;;;21.80;98.20;;;;;;5022175;28;20485;-85
2023/08/16 08:00:40;;;;;;;1.50;0.90;;;21.80;98.20;;;;;;5012256;28;20489;-84
2023/08/16 08:03:08;;;;;;;1.50;0.90;;;21.70;98.20;;;;;;5022523;28;20485;-84
2023/08/16 08:05:34;;;;;;;1.60;1.10;;;21.60;98.20;;;;;;5022353;28;20456;-84
2023/08/16 08:08:01;;;;;;;1.50;0.90;;;21.60;98.20;;;;;;5019369;28;20471;-84
2023/08/16 08:10:29;;;;;;;1.50;0.90;;;21.50;98.20;;;;;;5019571;28;20205;-85
2023/08/16 08:12:56;;;;;;;1.50;0.90;;;21.50;98.20;;;;;;5025896;28;20513;-83
2023/08/16 08:15:24;;;;;;;1.70;0.90;;;21.60;98.20;;;;;;5011786;28;20750;-85
2023/08/16 08:17:51;;;;;;;1.50;0.90;;;21.70;98.20;;;;;;5024417;28;20924;-85
2023/08/16 08:20:18;;;;;;;1.50;0.90;;;21.80;98.20;;;;;;5018329;28;20475;-85
2023/08/16 08:22:46;;;;;;;1.50;0.87;;;22.00;98.20;;;;;;5016581;28;20859;-85
2023/08/16 08:25:12;;;;;;;1.50;0.80;;;22.00;98.20;;;;;;5012929;28;20456;-85
2023/08/16 08:27:42;;;;;;;1.83;1.63;;;22.10;98.20;;;;;;5023155;28;20498;-84
2023/08/16 08:30:10;;;;;;;1.50;0.90;;;22.20;98.20;;;;;;5016978;28;20472;-85
2023/08/16 08:32:39;;;;;;;1.50;0.90;;;22.40;98.20;;;;;;5020943;28;20491;-85
2023/08/16 08:35:06;;;;;;;1.50;0.90;;;22.50;98.20;;;;;;5011709;28;20487;-86
2023/08/16 08:37:34;;;;;;;1.50;0.90;;;22.60;98.20;;;;;;5030923;28;20498;-86
2023/08/16 08:43:35;;;;;;;1.50;0.90;;;22.80;98.20;;;;;;4905822;29;20479;-85
2023/08/16 08:46:04;;;;;;;1.50;0.90;;;22.80;98.20;;;;;;4984668;28;20594;-85
2023/08/16 08:48:34;;;;;;;1.50;0.90;;;22.80;98.20;;;;;;5010721;28;20976;-85
2023/08/16 08:51:03;;;;;;;1.50;0.90;;;22.80;98.20;;;;;;4987626;28;20469;-85
2023/08/16 08:53:30;;;;;;;1.50;0.87;;;22.80;98.20;;;;;;5002215;28;20477;-85
2023/08/16 08:56:11;;;;;;;1.50;0.90;;;22.90;98.20;;;;;;4991605;28;20547;-86
2023/08/16 08:58:48;;;;;;;1.60;1.10;;;22.90;98.20;;;;;;4999600;28;20463;-84
2023/08/16 09:01:15;;;;;;;1.50;0.90;;;22.90;98.20;;;;;;4982149;28;20510;-86
2023/08/16 09:03:53;;;;;;;1.50;0.90;;;23.00;98.20;;;;;;5000139;28;20492;-84
2023/08/16 09:06:46;;;;;;;1.50;0.90;;;23.00;98.20;;;;;;4985156;28;20530;-87
2023/08/16 09:09:52;;;;;;;1.50;0.83;;;22.90;98.20;;;;;;5001802;28;20449;-85
2023/08/16 09:12:19;;;;;;;1.50;0.90;;;23.00;98.20;;;;;;4988732;28;20568;-85
2023/08/16 09:17:29;;;;;;;1.50;0.90;;;23.20;98.20;;;;;;4990178;28;20476;-85
2023/08/16 09:20:00;;;;;;;1.50;0.90;;;23.10;98.20;;;;;;4998611;28;20496;-85
2023/08/16 09:25:31;;;;;;;1.50;0.90;;;23.20;98.20;;;;;;4988399;28;20536;-85
2023/08/16 09:27:58;;;;;;;1.50;0.90;;;23.20;98.20;;;;;;4998749;28;21291;-85
2023/08/16 09:30:27;;;;;;;1.50;1.00;;;23.10;98.20;;;;;;5001415;28;20469;-85
2023/08/16 09:32:55;;;;;;;1.50;0.93;;;23.10;98.20;;;;;;4998160;28;20493;-85
2023/08/16 09:35:29;;;;;;;1.50;0.90;;;23.20;98.20;;;;;;4997738;28;20457;-85
2023/08/16 09:37:57;;;;;;;1.50;0.90;;;23.20;98.20;;;;;;5003975;28;21015;-84
2023/08/16 09:40:24;;;;;;;1.80;1.40;;;23.30;98.20;;;;;;4996863;28;20453;-85
2023/08/16 09:42:51;;;;;;;1.50;0.90;;;23.40;98.20;;;;;;5004585;28;20527;-84
2023/08/16 09:45:27;;;;;;;1.50;0.90;;;23.50;98.20;;;;;;5001271;28;20458;-86
2023/08/16 09:48:01;;;;;;;1.60;1.10;;;23.60;98.20;;;;;;4996815;28;20483;-85
2023/08/16 09:50:33;;;;;;;1.50;0.80;;;23.60;98.20;;;;;;5000151;28;20488;-84
2023/08/16 09:53:04;;;;;;;1.50;0.90;;;23.60;98.20;;;;;;4984555;28;20538;-85
2023/08/16 09:55:40;;;;;;;1.50;0.90;;;23.60;98.20;;;;;;4996654;28;20454;-83
2023/08/16 09:58:08;;;;;;;1.50;0.90;;;23.70;98.20;;;;;;5002152;28;20539;-84
2023/08/16 10:00:35;;;;;;;5.87;1.10;;;23.70;98.20;;;;;;4991089;28;20462;-84
2023/08/16 10:03:03;;;;;;;1.50;0.90;;;23.70;98.20;;;;;;4998177;28;20488;-84
2023/08/16 10:05:32;;;;;;;1.50;0.90;;;23.80;98.20;;;;;;4992057;28;20491;-84
2023/08/16 10:08:03;;;;;;;1.50;0.80;;;23.80;98.20;;;;;;4995107;28;20512;-84
2023/08/16 10:10:34;;;;;;;1.50;0.90;;;23.70;98.20;;;;;;4996033;28;20504;-84
2023/08/16 10:13:02;;;;;;;1.50;0.90;;;23.70;98.20;;;;;;4995505;28;21215;-84
2023/08/16 10:15:40;;;;;;;1.43;0.83;;;23.60;98.20;;;;;;4996965;28;20457;-84
2023/08/16 10:18:10;;;;;;;1.50;1.03;;;23.60;98.20;;;;;;4998785;28;20499;-85
2023/08/16 10:20:44;;;;;;;1.50;1.00;;;23.50;98.20;;;;;;4995196;28;20465;-86
2023/08/16 10:23:13;;;;;;;1.50;0.90;;;23.50;98.20;;;;;;4997272;28;20580;-86
2023/08/16 10:25:45;;;;;;;1.50;0.90;;;23.50;98.20;;;;;;4992085;28;20542;-85
2023/08/16 10:28:26;;;;;;;1.47;0.83;;;23.50;98.20;;;;;;4994983;28;20758;-85
2023/08/16 10:30:57;;;;;;;1.60;1.30;;;23.50;98.20;;;;;;4987079;28;20496;-86
2023/08/16 10:33:33;;;;;;;1.50;0.90;;;23.50;98.20;;;;;;5016677;23;21004;-85
2023/08/16 10:36:02;;;;;;;1.47;0.90;;;23.50;98.20;;;;;;5018589;28;20459;-85
2023/08/16 10:38:35;;;;;;;1.50;0.83;;;23.50;98.20;;;;;;5043889;28;20907;-85
2023/08/16 10:41:02;;;;;;;1.50;0.90;;;23.50;98.20;;;;;;5027507;28;20475;-84
2023/08/16 10:43:34;;;;;;;1.50;0.90;;;23.60;98.20;;;;;;5055503;28;20480;-85
2023/08/16 10:46:24;;;;;;;1.50;0.80;;;23.60;98.20;;;;;;5024280;28;20459;-85
2023/08/16 10:49:19;;;;;;;1.50;0.83;;;23.70;98.20;;;;;;5044303;28;20480;-85
2023/08/16 10:55:28;;;;;;;1.50;0.90;;;23.80;98.20;;;;;;5029775;28;20476;-85
2023/08/16 10:57:55;;;;;;;1.50;0.90;;;23.80;98.20;;;;;;5036270;28;20887;-85
2023/08/16 11:00:32;;;;;;;1.50;0.90;;;23.90;98.20;;;;;;5030984;28;20556;-85
2023/08/16 11:02:59;;;;;;;1.50;0.90;;;24.00;98.20;;;;;;5035736;28;20480;-85
2023/08/16 11:05:26;;;;;;;1.50;0.80;;;24.10;98.20;;;;;;5032780;28;20543;-87
2023/08/16 11:07:55;;;;;;;1.50;1.10;;;24.40;98.20;;;;;;5039706;28;20478;-85
2023/08/16 11:10:33;;;;;;;1.57;0.90;;;24.90;98.20;;;;;;5032140;28;20455;-86
2023/08/16 11:13:31;;;;;;;1.50;0.90;;;25.40;98.20;;;;;;5050556;22;20915;-85
2023/08/16 11:16:32;;;;;;;1.60;1.00;;;26.00;98.20;;;;;;5008408;28;20547;-87
2023/08/16 11:26:04;;;;;;;1.50;0.87;;;26.90;98.20;;;;;;4981650;28;20869;-82
2023/08/16 11:28:57;;;;;;;1.50;0.80;;;26.80;98.20;;;;;;4922687;29;20496;-82
2023/08/16 11:31:26;;;;;;;1.50;0.90;;;26.90;98.20;;;;;;4990880;28;20483;-82
2023/08/16 11:33:56;;;;;;;1.50;0.87;;;27.10;98.20;;;;;;5016318;28;20477;-83
2023/08/16 11:36:23;;;;;;;1.57;0.87;;;27.30;98.20;;;;;;5000634;28;20529;-84
2023/08/16 11:39:04;;;;;;;1.60;1.03;;;27.50;98.20;;;;;;5024491;28;20536;-82
2023/08/16 11:41:32;;;;;;;1.50;0.90;;;27.70;98.20;;;;;;4999033;28;20479;-82
2023/08/16 11:44:00;;;;;;;1.50;0.80;;;27.80;98.20;;;;;;5014789;28;21239;-84
2023/08/16 11:46:27;;;;;;;1.50;0.80;;;28.00;98.20;;;;;;4996876;28;20474;-85
2023/08/16 11:48:55;;;;;;;1.50;0.90;;;28.00;98.20;;;;;;5018623;28;20751;-85
2023/08/16 11:51:22;;;;;;;1.50;0.80;;;28.10;98.20;;;;;;4999021;28;20478;-84
2023/08/16 11:53:49;;;;;;;1.50;0.80;;;28.00;98.20;;;;;;5020144;28;20990;-85
2023/08/16 11:56:53;;;;;;;1.50;0.90;;;28.10;98.20;;;;;;4993701;28;20474;-83
2023/08/16 11:59:28;;;;;;;1.90;1.23;;;28.10;98.20;;;;;;5014099;28;20858;-83
2023/08/16 12:01:57;;;;;;;1.50;0.80;;;28.30;98.20;;;;;;5004873;28;20775;-83
2023/08/16 12:04:24;;;;;;;1.50;1.10;;;28.40;98.20;;;;;;5007862;28;20506;-83
2023/08/16 12:06:51;;;;;;;1.50;0.90;;;28.50;98.20;;;;;;5001841;28;20474;-83
2023/08/16 12:09:22;;;;;;;1.50;0.80;;;28.60;98.20;;;;;;5015320;28;20464;-83
2023/08/16 12:11:52;;;;;;;1.50;0.80;;;28.70;98.20;;;;;;5008409;28;20635;-83
2023/08/16 12:14:20;;;;;;;1.50;0.80;;;28.90;98.20;;;;;;5001567;28;20512;-84
2023/08/16 12:16:47;;;;;;;1.50;0.80;;;28.80;98.20;;;;;;5006278;28;20478;-83
2023/08/16 12:19:19;;;;;;;1.50;0.80;;;28.60;97.70;;;;;;5025467;28;20484;-84
2023/08/16 12:21:47;;;;;;;1.90;1.03;;;28.30;97.90;;;;;;5002021;28;20477;-83
2023/08/16 12:25:01;;;;;;;1.50;0.87;;;28.20;98.20;;;;;;5016809;28;20570;-84
2023/08/16 12:27:29;;;;;;;1.50;0.90;;;28.40;98.20;;;;;;5011964;28;20474;-83
2023/08/16 12:29:56;;;;;;;1.50;0.80;;;28.60;98.20;;;;;;4998031;28;20815;-85
2023/08/16 12:35:16;;;;;;;1.50;0.80;;;28.60;98.00;;;;;;5062644;23;20551;-85
2023/08/16 12:37:43;;;;;;;1.47;0.87;;;28.60;98.20;;;;;;5058524;28;20477;-85
2023/08/16 12:40:10;;;;;;;1.50;0.80;;;28.50;97.60;;;;;;5040010;28;20462;-85
2023/08/16 12:42:40;;;;;;;2.03;0.90;;;28.20;97.90;;;;;;5051933;28;20497;-85
2023/08/16 12:45:14;;;;;;;1.47;0.80;;;28.00;98.20;;;;;;5041083;28;20478;-83
2023/08/16 12:47:41;;;;;;;1.50;0.80;;;27.70;98.20;;;;;;5053006;28;20585;-86
2023/08/16 12:50:08;;;;;;;1.50;0.90;;;27.40;98.20;;;;;;5053494;28;20533;-85
2023/08/16 12:52:35;;;;;;;1.50;0.90;;;27.30;98.20;;;;;;5050969;28;20531;-85
2023/08/16 12:55:02;;;;;;;1.50;0.90;;;27.20;98.20;;;;;;5053752;28;20528;-84
2023/08/16 12:57:30;;;;;;;1.97;1.77;;;27.10;98.20;;;;;;5053890;28;20568;-84
2023/08/16 12:59:58;;;;;;;1.50;0.90;;;27.20;98.20;;;;;;5057066;28;20494;-85
2023/08/16 13:02:25;;;;;;;1.50;0.90;;;27.50;98.20;;;;;;5047030;28;20477;-85
2023/08/16 13:05:03;;;;;;;1.50;0.90;;;27.80;98.20;;;;;;5058570;28;20516;-84
2023/08/16 13:07:29;;;;;;;1.50;0.87;;;28.00;98.20;;;;;;5050129;28;21141;-86
2023/08/16 13:09:56;;;;;;;1.70;1.10;;;28.20;98.20;;;;;;5054920;28;20472;-85
2023/08/16 13:12:23;;;;;;;1.50;1.00;;;28.40;98.20;;;;;;5046492;28;20472;-89
2023/08/16 13:14:50;;;;;;;1.50;0.80;;;28.60;98.20;;;;;;5052614;28;20489;-86
2023/08/16 13:17:18;;;;;;;1.47;0.80;;;28.70;97.70;;;;;;5050507;28;20477;-84
2023/08/16 13:19:45;;;;;;;1.60;1.23;;;28.70;97.00;;;;;;5053532;28;20462;-84
2023/08/16 13:22:13;;;;;;;1.50;0.80;;;28.50;98.10;;;;;;5051299;28;20479;-84
2023/08/16 13:24:39;;;;;;;1.43;0.80;;;28.60;98.20;;;;;;5053123;28;20467;-84